Time;durP1;ratioP1;P1;durP2;ratioP2;P2;SDS_P1;SDS_P2;PMS_P1;PMS_P2;Temp;Humidity;BMP_temperature;BMP_pressure;BME280_temperature;BME280_humidity;BME280_pressure;Samples;Min_cycle;Max_cycle;Signal;HPM_P1;HPM_P2
2021/12/06 00:01:02;;;;;;;25.48;11.15;;;;;;;0.52;100.00;95241.84;5062798;28;20049;-78
2021/12/06 00:03:36;;;;;;;27.38;11.65;;;;;;;0.54;100.00;95237.28;5069074;28;20048;-76
2021/12/06 00:06:02;;;;;;;25.20;12.57;;;;;;;0.40;100.00;95240.81;5072356;28;20040;-77
2021/12/06 00:08:27;;;;;;;27.15;11.90;;;;;;;0.44;100.00;95247.22;5073145;28;20052;-76
2021/12/06 00:10:53;;;;;;;25.75;12.38;;;;;;;0.38;100.00;95227.31;5084637;28;20105;-79
2021/12/06 00:13:22;;;;;;;30.15;13.10;;;;;;;0.32;100.00;95248.75;5087798;28;20052;-79
2021/12/06 00:15:50;;;;;;;29.35;13.43;;;;;;;0.21;100.00;95248.31;5085072;28;20029;-78
2021/12/06 00:18:16;;;;;;;31.10;13.73;;;;;;;0.31;100.00;95242.78;5084217;28;20033;-78
2021/12/06 00:20:41;;;;;;;29.73;12.98;;;;;;;0.23;100.00;95261.06;5084764;28;20052;-77
2021/12/06 00:23:07;;;;;;;33.20;13.52;;;;;;;0.26;100.00;95258.09;5087923;28;20071;-79
2021/12/06 00:25:33;;;;;;;30.48;12.48;;;;;;;0.25;100.00;95264.25;5089068;28;20139;-78
2021/12/06 00:27:59;;;;;;;32.78;13.63;;;;;;;0.23;100.00;95251.53;5088220;28;20059;-79
2021/12/06 00:30:26;;;;;;;29.02;12.27;;;;;;;0.35;100.00;95263.91;5086332;28;20045;-79
2021/12/06 00:32:51;;;;;;;28.42;13.02;;;;;;;0.33;100.00;95265.88;5090744;28;20056;-78
2021/12/06 00:35:23;;;;;;;27.80;12.88;;;;;;;0.40;100.00;95266.69;5089765;28;20037;-79
2021/12/06 00:37:58;;;;;;;30.08;13.43;;;;;;;0.52;100.00;95270.28;5090554;28;20063;-78
2021/12/06 00:40:27;;;;;;;32.22;13.52;;;;;;;0.53;100.00;95261.53;5093520;28;20121;-78
2021/12/06 00:42:53;;;;;;;29.58;12.80;;;;;;;0.62;100.00;95269.91;5091723;28;20064;-79
2021/12/06 00:45:19;;;;;;;28.42;12.52;;;;;;;0.66;100.00;95277.09;5090459;28;20059;-80
2021/12/06 00:47:46;;;;;;;26.25;12.32;;;;;;;0.70;100.00;95267.97;5091581;28;20056;-80
2021/12/06 00:50:12;;;;;;;31.08;14.35;;;;;;;0.72;100.00;95260.78;5090937;28;20060;-79
2021/12/06 00:52:40;;;;;;;33.03;13.35;;;;;;;0.81;100.00;95273.53;5091429;28;20048;-79
2021/12/06 00:55:10;;;;;;;29.23;13.20;;;;;;;0.90;100.00;95277.53;5092662;28;20057;-79
2021/12/06 00:57:36;;;;;;;36.47;15.80;;;;;;;1.04;99.41;95285.09;5094222;28;20088;-80
2021/12/06 01:00:06;;;;;;;32.63;15.30;;;;;;;0.92;98.97;95280.72;5089289;28;20040;-79
2021/12/06 01:02:32;;;;;;;42.60;18.92;;;;;;;0.79;99.58;95286.66;5092478;28;20060;-79
2021/12/06 01:04:59;;;;;;;44.20;18.35;;;;;;;0.76;99.79;95293.06;5089930;28;20051;-77
2021/12/06 01:07:25;;;;;;;39.47;16.08;;;;;;;0.83;99.87;95292.25;5089819;28;20040;-79
2021/12/06 01:09:53;;;;;;;40.30;16.83;;;;;;;0.79;99.73;95297.03;5090987;28;20089;-79
2021/12/06 01:12:18;;;;;;;;;;;;;;;0.70;100.00;95304.19;5090568;28;20040;-79
2021/12/06 01:14:44;;;;;;;36.63;13.57;;;;;;;0.64;100.00;95304.16;5091365;28;19936;-80
2021/12/06 01:17:10;;;;;;;43.50;17.55;;;;;;;0.51;100.00;95290.19;5091952;28;20055;-81
2021/12/06 01:19:38;;;;;;;37.58;15.98;;;;;;;0.70;100.00;95308.53;5083888;28;20056;-75
2021/12/06 01:22:25;;;;;;;38.80;15.40;;;;;;;0.83;100.00;95310.38;5079700;28;20043;-76
2021/12/06 01:25:01;;;;;;;35.30;14.05;;;;;;;0.88;99.88;95318.34;5081737;28;20047;-76
2021/12/06 01:27:49;;;;;;;38.42;15.20;;;;;;;0.95;99.85;95311.38;5088836;28;20017;-75
2021/12/06 01:40:59;;;;;;;38.33;14.63;;;;;;;0.81;99.34;95340.81;5075889;28;20060;-77
2021/12/06 01:43:25;;;;;;;;;;;;;;;0.81;99.90;95340.81;5075727;28;20500;-76
2021/12/06 01:45:51;;;;;;;38.55;15.65;;;;;;;0.63;100.00;95355.13;5076653;28;19920;-77
2021/12/06 01:48:17;;;;;;;34.20;14.48;;;;;;;1.02;99.12;95344.09;5085903;28;20097;-77
2021/12/06 01:50:42;;;;;;;37.42;14.32;;;;;;;1.08;98.74;95352.03;5076513;28;20044;-76
2021/12/06 01:53:08;;;;;;;38.78;15.02;;;;;;;0.98;98.65;95347.25;5074950;28;20124;-76
2021/12/06 01:55:40;;;;;;;36.30;15.60;;;;;;;1.08;98.98;95352.03;5073503;28;20099;-76
2021/12/06 01:58:07;;;;;;;44.38;17.08;;;;;;;1.03;98.11;95357.81;5075540;28;20142;-77
2021/12/06 02:00:39;;;;;;;42.78;14.90;;;;;;;1.10;98.36;95358.63;5074799;28;20048;-79
2021/12/06 02:03:05;;;;;;;36.70;15.18;;;;;;;1.10;98.25;95345.66;5090930;28;20089;-78
2021/12/06 02:05:31;;;;;;;37.45;13.55;;;;;;;1.16;97.76;95342.28;5090079;28;20059;-80
2021/12/06 02:07:57;;;;;;;34.88;15.00;;;;;;;1.20;97.32;95343.50;5089991;28;20036;-80
2021/12/06 02:10:24;;;;;;;42.97;17.13;;;;;;;1.18;97.27;95342.09;5088412;28;20044;-79
2021/12/06 02:12:55;;;;;;;42.28;15.20;;;;;;;1.06;98.05;95334.09;5088187;28;20044;-81
2021/12/06 02:15:37;;;;;;;39.47;15.00;;;;;;;1.03;98.17;95339.69;5090482;28;20071;-79
2021/12/06 02:18:10;;;;;;;38.28;14.98;;;;;;;1.08;98.39;95337.31;5091571;28;20182;-79
2021/12/06 02:20:46;;;;;;;38.63;15.02;;;;;;;1.25;97.58;95333.34;5090987;28;20040;-79
2021/12/06 02:23:13;;;;;;;35.80;15.00;;;;;;;1.37;96.75;95337.91;5095494;28;20050;-80
2021/12/06 02:25:42;;;;;;;36.17;14.23;;;;;;;1.35;96.31;95343.31;5090894;28;20138;-79
2021/12/06 02:28:10;;;;;;;43.85;16.58;;;;;;;1.13;97.67;95349.66;5090851;28;20051;-79
2021/12/06 02:30:35;;;;;;;33.42;14.77;;;;;;;0.90;98.38;95350.81;5091146;28;20036;-79
2021/12/06 02:33:01;;;;;;;36.33;14.98;;;;;;;0.56;99.77;95364.66;5091847;28;20064;-79
2021/12/06 02:35:27;;;;;;;37.97;13.98;;;;;;;0.64;99.97;95368.84;5088497;28;20055;-79
2021/12/06 02:37:56;;;;;;;40.45;15.32;;;;;;;0.64;100.00;95367.06;5085101;28;20430;-80
2021/12/06 02:40:26;;;;;;;35.30;14.45;;;;;;;0.63;100.00;95372.44;5091571;28;20075;-78
2021/12/06 02:42:53;;;;;;;38.00;16.27;;;;;;;0.53;100.00;95370.22;5089715;28;20040;-78
2021/12/06 02:45:26;;;;;;;33.70;12.38;;;;;;;0.70;99.50;95376.66;5090774;28;20062;-78
2021/12/06 02:47:53;;;;;;;32.40;12.80;;;;;;;0.64;99.48;95371.44;5087296;28;20036;-79
2021/12/06 02:50:24;;;;;;;29.42;11.85;;;;;;;0.83;98.50;95370.72;5089835;28;20067;-81
2021/12/06 02:52:54;;;;;;;24.85;10.77;;;;;;;0.59;98.68;95374.59;5086037;28;20420;-80
2021/12/06 02:55:33;;;;;;;29.40;11.50;;;;;;;0.44;99.53;95371.41;5085851;28;20062;-81
2021/12/06 02:58:13;;;;;;;29.48;11.60;;;;;;;0.39;99.81;95371.16;5086236;28;20124;-80
2021/12/06 03:00:41;;;;;;;29.52;12.15;;;;;;;0.41;99.90;95375.16;5093840;28;20031;-78
2021/12/06 03:03:09;;;;;;;27.55;10.38;;;;;;;0.66;99.19;95380.63;5093864;28;20067;-80
2021/12/06 03:05:35;;;;;;;;;;;;;;;0.69;98.16;95369.88;5089139;28;20052;-78
2021/12/06 03:08:03;;;;;;;22.55;10.15;;;;;;;0.57;98.81;95366.25;5092094;28;19952;-78
2021/12/06 03:10:29;;;;;;;26.42;10.45;;;;;;;0.59;99.34;95374.59;5089996;28;20048;-75
2021/12/06 03:12:58;;;;;;;26.13;11.13;;;;;;;0.52;99.35;95373.81;5090822;28;20048;-77
2021/12/06 03:15:28;;;;;;;24.48;10.02;;;;;;;0.68;98.51;95381.22;5088999;28;20029;-77
2021/12/06 03:17:53;;;;;;;24.70;10.65;;;;;;;0.57;98.82;95371.44;5085059;28;20036;-77
2021/12/06 03:20:19;;;;;;;25.05;11.15;;;;;;;0.52;98.99;95384.16;5084295;28;20094;-76
2021/12/06 03:22:45;;;;;;;22.50;10.18;;;;;;;0.49;99.22;95381.97;5085488;28;20145;-75
2021/12/06 03:25:13;;;;;;;26.65;10.93;;;;;;;0.45;99.43;95376.38;5071892;28;20040;-76
2021/12/06 03:27:39;;;;;;;22.73;10.57;;;;;;;0.68;98.77;95383.00;5074492;28;20066;-76
2021/12/06 03:30:07;;;;;;;24.27;11.23;;;;;;;0.72;98.86;95395.38;5074141;28;20475;-76
2021/12/06 03:32:35;;;;;;;23.77;11.60;;;;;;;0.76;98.97;95391.41;5074764;28;20037;-77
2021/12/06 03:35:01;;;;;;;23.73;10.70;;;;;;;0.78;98.79;95404.94;5074970;28;20046;-77
2021/12/06 03:37:29;;;;;;;21.33;9.60;;;;;;;0.79;97.03;95403.97;5073861;28;20059;-77
2021/12/06 03:39:54;;;;;;;;;;;;;;;0.91;96.89;95399.00;5073866;28;20512;-76
2021/12/06 03:42:22;;;;;;;19.50;8.73;;;;;;;0.96;96.58;95421.72;5073120;28;19920;-76
2021/12/06 03:44:48;;;;;;;;;;;;;;;0.95;96.94;95417.56;5073829;28;20421;-76
2021/12/06 03:47:17;;;;;;;26.00;10.20;;;;;;;0.97;97.10;95423.31;5072846;28;19961;-76
2021/12/06 03:49:44;;;;;;;28.90;12.10;;;;;;;0.88;97.32;95403.78;5078078;28;20124;-78
2021/12/06 03:52:13;;;;;;;30.45;12.98;;;;;;;0.88;97.41;95425.31;5087967;28;20024;-76
2021/12/06 03:54:40;;;;;;;25.90;11.70;;;;;;;1.03;97.31;95417.38;5089818;28;20072;-75
2021/12/06 03:57:06;;;;;;;25.67;11.60;;;;;;;1.18;97.00;95417.19;5083881;28;20044;-77
2021/12/06 03:59:33;;;;;;;24.75;10.85;;;;;;;1.09;96.54;95421.78;5076024;28;20056;-76
2021/12/06 04:01:58;;;;;;;24.40;10.13;;;;;;;1.07;96.61;95428.94;5075259;28;20094;-75
2021/12/06 04:04:27;;;;;;;23.75;9.95;;;;;;;1.00;96.73;95428.91;5074012;28;20053;-77
2021/12/06 04:06:55;;;;;;;25.10;9.48;;;;;;;0.91;97.15;95429.28;5075860;28;20044;-76
2021/12/06 04:09:21;;;;;;;24.40;9.82;;;;;;;0.91;97.06;95429.28;5079763;28;20044;-76
2021/12/06 04:11:49;;;;;;;22.50;9.68;;;;;;;0.88;96.96;95425.31;5076602;28;20055;-77
2021/12/06 04:14:15;;;;;;;21.73;9.95;;;;;;;1.05;97.16;95434.31;5076814;28;20048;-76
2021/12/06 04:16:41;;;;;;;19.92;8.80;;;;;;;1.01;96.30;95434.91;5076309;28;20096;-76
2021/12/06 04:19:10;;;;;;;19.35;8.93;;;;;;;0.91;96.61;95440.44;5076472;28;20519;-74
2021/12/06 04:21:37;;;;;;;22.52;9.70;;;;;;;0.97;97.43;95444.03;5076381;28;20120;-74
2021/12/06 04:24:07;;;;;;;22.83;9.60;;;;;;;1.01;97.26;95448.63;5076069;28;20103;-75
2021/12/06 04:26:35;;;;;;;22.52;9.75;;;;;;;1.02;96.62;95452.03;5075958;28;20036;-77
2021/12/06 04:29:02;;;;;;;22.35;9.25;;;;;;;1.08;96.94;95456.44;5075387;28;20131;-76
2021/12/06 04:31:29;;;;;;;23.92;10.32;;;;;;;1.03;96.92;95453.66;5076170;28;20048;-76
2021/12/06 04:33:55;;;;;;;23.52;10.75;;;;;;;1.10;96.83;95449.28;5074751;28;20050;-75
2021/12/06 04:36:21;;;;;;;23.50;10.35;;;;;;;1.07;97.09;95460.00;5075112;28;20183;-76
2021/12/06 04:38:48;;;;;;;25.73;10.48;;;;;;;1.02;96.79;95462.38;5076544;28;20108;-76
2021/12/06 04:41:17;;;;;;;26.58;10.80;;;;;;;0.95;97.35;95461.56;5082186;28;20056;-76
2021/12/06 04:43:44;;;;;;;30.40;11.88;;;;;;;1.09;97.32;95459.84;5090545;28;20037;-78
2021/12/06 04:46:09;;;;;;;30.45;12.43;;;;;;;1.05;97.04;95467.97;5088878;28;20041;-78
2021/12/06 04:48:35;;;;;;;25.05;10.63;;;;;;;1.10;96.97;95470.00;5086800;28;20037;-77
2021/12/06 04:51:01;;;;;;;29.88;12.32;;;;;;;1.16;97.09;95476.97;5087801;28;20052;-80
2021/12/06 04:53:36;;;;;;;32.30;13.32;;;;;;;1.04;97.27;95475.97;5087909;28;20037;-80
2021/12/06 04:56:08;;;;;;;27.92;12.55;;;;;;;0.90;98.00;95485.44;5087744;28;20387;-80
2021/12/06 04:58:41;;;;;;;29.75;13.02;;;;;;;1.06;97.79;95486.91;5088160;28;20051;-79
2021/12/06 05:01:10;;;;;;;29.00;12.63;;;;;;;1.13;97.54;95485.16;5088225;28;20052;-78
2021/12/06 05:03:40;;;;;;;;;;;;;;;1.08;97.67;95481.53;5087983;28;20119;-79
2021/12/06 05:06:09;;;;;;;27.65;11.93;;;;;;;1.14;97.41;95496.31;5086615;28;19928;-79
2021/12/06 05:08:42;;;;;;;31.60;12.40;;;;;;;1.11;97.37;95497.47;5086562;28;20041;-81
2021/12/06 05:11:09;;;;;;;35.33;14.10;;;;;;;1.03;97.73;95505.44;5082607;28;20102;-75
2021/12/06 05:13:40;;;;;;;34.58;13.25;;;;;;;1.08;97.85;95503.06;5075466;28;20056;-77
2021/12/06 05:16:06;;;;;;;34.50;14.77;;;;;;;1.08;97.62;95505.66;5086732;28;20095;-76
2021/12/06 05:18:32;;;;;;;32.13;13.38;;;;;;;1.11;97.98;95512.22;5088094;28;20123;-79
2021/12/06 05:20:57;;;;;;;32.10;14.65;;;;;;;0.96;98.14;95520.13;5088081;28;20045;-80
2021/12/06 05:23:23;;;;;;;30.23;13.10;;;;;;;1.09;97.96;95533.16;5089266;28;20049;-77
2021/12/06 05:25:49;;;;;;;37.78;14.93;;;;;;;1.18;98.36;95534.56;5090694;28;20040;-79
2021/12/06 05:28:17;;;;;;;31.23;13.15;;;;;;;1.42;97.37;95535.84;5086515;28;20141;-79
2021/12/06 05:30:48;;;;;;;31.25;13.68;;;;;;;1.45;96.57;95539.84;5085808;28;20416;-79
2021/12/06 05:33:27;;;;;;;35.53;14.15;;;;;;;1.43;96.82;95547.03;5084882;28;20041;-80
2021/12/06 05:35:53;;;;;;;32.35;13.75;;;;;;;1.39;96.54;95549.19;5092699;28;20067;-78
2021/12/06 05:38:19;;;;;;;34.53;14.23;;;;;;;1.39;96.75;95551.00;5093905;28;20139;-77
2021/12/06 05:40:47;;;;;;;32.97;13.88;;;;;;;1.43;96.89;95552.19;5092092;28;20064;-77
2021/12/06 05:43:13;;;;;;;37.85;15.13;;;;;;;1.50;96.52;95547.84;5089928;28;20037;-78
2021/12/06 05:45:39;;;;;;;36.05;14.50;;;;;;;1.49;97.14;95554.00;5088988;28;20040;-77
2021/12/06 05:48:06;;;;;;;35.92;15.07;;;;;;;1.59;96.51;95557.03;5083130;28;20048;-77
2021/12/06 05:50:32;;;;;;;35.60;14.60;;;;;;;1.57;95.83;95564.22;5081520;28;20127;-76
2021/12/06 05:52:58;;;;;;;34.00;13.23;;;;;;;1.57;95.91;95572.00;5076967;28;20072;-75
2021/12/06 05:55:27;;;;;;;32.42;14.30;;;;;;;1.50;95.56;95568.56;5088313;28;20322;-76
2021/12/06 05:57:56;;;;;;;39.25;15.65;;;;;;;1.44;96.42;95569.34;5087370;28;20139;-78
2021/12/06 06:00:24;;;;;;;38.78;15.00;;;;;;;1.43;96.26;95580.72;5089331;28;20378;-78
2021/12/06 06:02:50;;;;;;;39.80;14.48;;;;;;;1.45;96.41;95581.31;5087604;28;20040;-78
2021/12/06 06:05:18;;;;;;;35.65;14.75;;;;;;;1.36;96.21;95596.25;5089455;28;20051;-78
2021/12/06 06:07:44;;;;;;;40.83;16.23;;;;;;;1.35;96.82;95591.25;5088208;28;20045;-78
2021/12/06 06:10:09;;;;;;;37.13;15.80;;;;;;;1.47;96.45;95600.06;5088293;28;20095;-78
2021/12/06 06:12:35;;;;;;;45.97;16.15;;;;;;;1.44;96.91;95600.44;5088834;28;20041;-78
2021/12/06 06:15:01;;;;;;;35.95;15.02;;;;;;;1.46;97.00;95603.66;5090002;28;20040;-77
2021/12/06 06:17:28;;;;;;;39.95;15.10;;;;;;;1.40;96.50;95601.81;5097529;28;20037;-78
2021/12/06 06:19:57;;;;;;;39.53;15.55;;;;;;;1.40;96.83;95613.00;5092114;28;20092;-79
2021/12/06 06:22:24;;;;;;;41.45;16.67;;;;;;;1.40;96.97;95614.78;5086075;28;20093;-77
2021/12/06 06:24:50;;;;;;;42.42;15.73;;;;;;;1.44;96.50;95614.19;5084286;28;20045;-77
2021/12/06 06:27:15;;;;;;;42.25;16.00;;;;;;;1.48;96.29;95622.41;5085910;28;20063;-77
2021/12/06 06:29:41;;;;;;;35.50;15.35;;;;;;;1.60;96.08;95631.22;5080893;28;20102;-75
2021/12/06 06:32:08;;;;;;;40.90;15.85;;;;;;;1.64;95.01;95635.03;5077756;28;20047;-76
2021/12/06 06:34:36;;;;;;;41.28;15.90;;;;;;;1.62;95.39;95631.03;5077190;28;20110;-76
2021/12/06 06:37:03;;;;;;;43.72;16.52;;;;;;;1.50;95.44;95641.94;5086531;28;20044;-76
2021/12/06 06:39:30;;;;;;;39.22;15.57;;;;;;;1.57;96.10;95647.16;5090063;28;20059;-76
2021/12/06 06:41:55;;;;;;;45.67;17.40;;;;;;;1.60;96.20;95644.19;5083764;28;20048;-75
2021/12/06 06:44:23;;;;;;;39.47;16.80;;;;;;;1.62;95.59;95642.22;5089592;28;20139;-77
2021/12/06 06:46:49;;;;;;;43.38;16.33;;;;;;;1.55;96.08;95643.94;5077779;28;20069;-77
2021/12/06 06:49:17;;;;;;;45.70;16.65;;;;;;;1.65;96.05;95641.00;5074655;28;20516;-76
2021/12/06 06:51:46;;;;;;;42.67;15.95;;;;;;;1.56;96.15;95642.94;5081239;28;20148;-77
2021/12/06 06:54:12;;;;;;;38.75;15.38;;;;;;;1.45;96.50;95654.66;5085026;28;20040;-78
2021/12/06 06:56:40;;;;;;;40.10;16.05;;;;;;;1.55;95.93;95654.31;5073090;28;20385;-78
2021/12/06 06:59:06;;;;;;;44.42;16.02;;;;;;;1.57;96.21;95660.13;5081164;28;20040;-77
2021/12/06 07:01:33;;;;;;;35.88;15.18;;;;;;;1.61;96.38;95658.72;5071200;28;20069;-78
2021/12/06 07:03:58;;;;;;;39.28;15.60;;;;;;;1.58;96.12;95661.72;5064593;28;20049;-79
2021/12/06 07:06:25;;;;;;;42.75;17.10;;;;;;;1.46;96.13;95663.28;5083695;28;20059;-80
2021/12/06 07:08:54;;;;;;;40.42;15.77;;;;;;;1.42;96.21;95662.03;5078499;28;20508;-78
2021/12/06 07:11:22;;;;;;;42.80;16.27;;;;;;;1.40;96.48;95671.78;5069602;28;20122;-79
2021/12/06 07:13:49;;;;;;;45.25;17.42;;;;;;;1.37;97.09;95669.59;5072755;28;20048;-79
2021/12/06 07:16:19;;;;;;;41.08;14.75;;;;;;;1.37;96.88;95677.38;5068982;28;20059;-76
2021/12/06 07:18:48;;;;;;;36.72;15.52;;;;;;;1.43;96.98;95677.41;5063361;28;20519;-75
2021/12/06 07:21:14;;;;;;;38.42;15.50;;;;;;;1.51;97.16;95685.03;5059333;28;20067;-74
2021/12/06 07:23:40;;;;;;;42.88;17.80;;;;;;;1.49;96.64;95681.81;5052229;28;20037;-76
2021/12/06 07:26:07;;;;;;;37.58;16.33;;;;;;;1.51;96.48;95679.03;5054797;28;20045;-76
2021/12/06 07:28:33;;;;;;;41.83;16.05;;;;;;;1.45;96.46;95682.38;5055337;28;20047;-76
2021/12/06 07:31:02;;;;;;;33.90;14.13;;;;;;;1.48;96.41;95685.41;5056641;28;20040;-78
2021/12/06 07:33:28;;;;;;;33.75;15.43;;;;;;;1.43;96.54;95695.53;5058285;28;20124;-76
2021/12/06 07:35:54;;;;;;;36.42;15.52;;;;;;;1.38;96.73;95689.31;5054840;28;20068;-77
2021/12/06 07:38:21;;;;;;;36.88;14.52;;;;;;;1.48;97.02;95705.34;5056074;28;20044;-76
2021/12/06 07:40:50;;;;;;;37.50;15.23;;;;;;;1.38;96.44;95697.09;5054967;28;20051;-76
2021/12/06 07:43:16;;;;;;;34.97;14.30;;;;;;;1.60;96.05;95701.19;5055241;28;20065;-77
2021/12/06 07:45:42;;;;;;;33.53;13.27;;;;;;;1.66;95.81;95700.44;5054018;28;20065;-76
2021/12/06 07:48:09;;;;;;;31.23;13.00;;;;;;;1.68;95.49;95710.63;5054707;28;20099;-76
2021/12/06 07:50:35;;;;;;;33.75;14.63;;;;;;;1.70;95.85;95711.22;5054880;28;20045;-76
2021/12/06 07:53:00;;;;;;;38.25;15.30;;;;;;;1.72;95.26;95717.00;5054986;28;20041;-76
2021/12/06 07:55:30;;;;;;;33.42;14.52;;;;;;;1.85;95.19;95714.50;5052408;28;20128;-76
2021/12/06 07:57:57;;;;;;;36.08;13.82;;;;;;;1.85;94.50;95717.09;5054018;28;20041;-75
2021/12/06 08:00:24;;;;;;;34.10;14.13;;;;;;;1.92;93.93;95723.09;5053162;28;20065;-76
2021/12/06 08:02:51;;;;;;;32.97;13.90;;;;;;;1.87;94.63;95732.44;5054425;28;20056;-77
2021/12/06 08:05:30;;;;;;;33.60;14.23;;;;;;;1.84;93.98;95731.06;5052710;28;20037;-75
2021/12/06 08:07:59;;;;;;;34.97;15.32;;;;;;;1.80;94.51;95742.78;5054218;28;20045;-78
2021/12/06 08:10:25;;;;;;;29.17;13.85;;;;;;;1.91;94.32;95741.44;5059073;28;20110;-76
2021/12/06 08:12:50;;;;;;;30.35;13.65;;;;;;;1.89;94.38;95736.47;5058558;28;20045;-76
2021/12/06 08:15:16;;;;;;;38.72;14.23;;;;;;;1.95;93.91;95738.28;5054479;28;20045;-77
2021/12/06 08:17:42;;;;;;;28.48;12.98;;;;;;;1.96;94.28;95746.84;5054309;28;20045;-76
2021/12/06 08:20:09;;;;;;;34.60;13.30;;;;;;;1.99;94.10;95754.25;5055008;28;20485;-77
2021/12/06 08:22:37;;;;;;;31.08;13.20;;;;;;;1.99;93.88;95765.44;5055134;28;20049;-77
2021/12/06 08:25:04;;;;;;;29.80;13.20;;;;;;;2.08;93.77;95768.66;5056228;28;20040;-76
2021/12/06 08:27:30;;;;;;;28.83;12.38;;;;;;;2.01;94.24;95762.66;5053702;28;20108;-78
2021/12/06 08:29:55;;;;;;;32.03;13.50;;;;;;;2.07;93.53;95759.28;5054919;28;20040;-75
2021/12/06 08:32:21;;;;;;;28.73;12.98;;;;;;;2.22;92.71;95759.94;5054072;28;20041;-75
2021/12/06 08:34:47;;;;;;;31.63;14.27;;;;;;;2.06;93.32;95757.69;5058791;28;20051;-75
2021/12/06 08:37:13;;;;;;;29.02;13.55;;;;;;;2.07;93.59;95762.66;5056767;28;20049;-76
2021/12/06 08:39:40;;;;;;;29.92;13.52;;;;;;;2.27;92.72;95765.34;5066375;28;20552;-76
2021/12/06 08:42:10;;;;;;;27.42;12.85;;;;;;;2.30;92.76;95761.56;5068837;28;20087;-77
2021/12/06 08:44:37;;;;;;;28.63;12.68;;;;;;;2.20;92.99;95759.31;5057536;28;20049;-78
2021/12/06 08:47:04;;;;;;;30.65;13.65;;;;;;;2.35;92.48;95751.38;5060242;28;20109;-77
2021/12/06 08:49:31;;;;;;;24.20;12.27;;;;;;;2.23;91.61;95766.72;5057569;28;20091;-77
2021/12/06 08:51:57;;;;;;;26.35;12.65;;;;;;;2.19;92.47;95762.91;5059540;28;20045;-76
2021/12/06 08:54:26;;;;;;;31.33;13.63;;;;;;;2.20;92.29;95771.50;5066062;28;20040;-76
2021/12/06 08:56:56;;;;;;;27.17;12.82;;;;;;;2.21;92.33;95755.75;5062824;28;20036;-76
2021/12/06 08:59:22;;;;;;;24.50;11.40;;;;;;;2.19;92.58;95764.72;5061066;28;20106;-77
2021/12/06 09:01:48;;;;;;;30.00;12.85;;;;;;;2.29;91.93;95778.91;5058108;28;20044;-77
2021/12/06 09:04:15;;;;;;;28.80;12.70;;;;;;;2.39;92.67;95775.97;5058441;28;20094;-77
2021/12/06 09:06:43;;;;;;;26.42;12.38;;;;;;;2.48;91.63;95776.59;5060347;28;20131;-76
2021/12/06 09:09:12;;;;;;;25.80;11.90;;;;;;;2.47;91.91;95782.75;5059125;28;20164;-77
2021/12/06 09:11:41;;;;;;;26.85;11.98;;;;;;;2.51;91.41;95783.97;5056651;28;20040;-77
2021/12/06 09:14:08;;;;;;;25.38;11.25;;;;;;;2.55;90.83;95785.19;5058221;28;20045;-76
2021/12/06 09:16:38;;;;;;;26.92;12.02;;;;;;;2.66;90.57;95791.63;5062835;28;20436;-75
2021/12/06 09:19:05;;;;;;;26.63;12.57;;;;;;;2.74;91.39;95794.03;5061131;28;20067;-77
2021/12/06 09:21:32;;;;;;;25.42;12.15;;;;;;;2.80;89.16;95788.88;5057539;28;20045;-77
2021/12/06 09:24:00;;;;;;;25.88;11.95;;;;;;;2.62;90.71;95786.00;5057815;28;20041;-76
2021/12/06 09:26:28;;;;;;;26.17;12.48;;;;;;;2.77;90.69;95794.44;5058362;28;20037;-77
2021/12/06 09:28:53;;;;;;;26.77;12.73;;;;;;;2.92;90.51;95789.06;5059767;28;20052;-77
2021/12/06 09:31:21;;;;;;;30.00;13.15;;;;;;;2.83;89.88;95792.84;5057779;28;20049;-76
2021/12/06 09:33:47;;;;;;;32.10;13.38;;;;;;;3.06;89.55;95792.47;5059504;28;20056;-77
2021/12/06 09:36:14;;;;;;;24.13;12.27;;;;;;;3.07;89.42;95800.09;5057814;28;20037;-77
2021/12/06 09:38:41;;;;;;;26.83;12.20;;;;;;;2.92;89.74;95802.06;5057729;28;20057;-77
2021/12/06 09:41:11;;;;;;;23.42;11.48;;;;;;;2.90;88.87;95802.25;5056552;28;20048;-77
2021/12/06 09:43:39;;;;;;;21.63;10.98;;;;;;;2.99;88.87;95802.06;5056919;28;20413;-76
2021/12/06 09:46:06;;;;;;;27.27;11.65;;;;;;;3.04;89.57;95799.69;5056714;28;20037;-77
2021/12/06 09:48:33;;;;;;;25.38;11.50;;;;;;;3.09;89.20;95803.28;5056032;28;20080;-77
2021/12/06 09:51:07;;;;;;;25.23;12.00;;;;;;;3.07;88.73;95797.50;5057383;28;20051;-76
2021/12/06 09:53:35;;;;;;;22.15;10.13;;;;;;;3.48;86.89;95803.50;5057655;28;20052;-76
2021/12/06 09:56:03;;;;;;;;;;;;;;;3.41;87.07;95801.69;5058448;28;20044;-76
2021/12/06 09:58:30;;;;;;;25.67;11.52;;;;;;;3.22;87.84;95801.69;5057813;28;20356;-78
2021/12/06 10:01:00;;;;;;;25.23;11.20;;;;;;;3.28;87.54;95801.72;5057552;28;20505;-76
2021/12/06 10:03:29;;;;;;;21.80;10.32;;;;;;;3.28;87.42;95801.72;5056035;28;20045;-75
2021/12/06 10:06:02;;;;;;;21.77;10.65;;;;;;;3.35;87.67;95802.50;5057104;28;20090;-77
2021/12/06 10:08:29;;;;;;;21.08;9.90;;;;;;;3.38;87.61;95785.69;5058755;28;20118;-76
2021/12/06 10:10:55;;;;;;;21.88;10.43;;;;;;;3.34;87.37;95785.31;5056614;28;20045;-77
2021/12/06 10:13:23;;;;;;;23.10;11.35;;;;;;;3.49;87.12;95802.47;5055730;28;20083;-77
2021/12/06 10:15:50;;;;;;;26.88;11.38;;;;;;;3.56;86.69;95798.09;5056380;28;20040;-77
2021/12/06 10:18:18;;;;;;;22.05;10.55;;;;;;;3.50;86.63;95798.88;5056054;28;20052;-76
2021/12/06 10:20:47;;;;;;;20.57;10.40;;;;;;;3.61;86.54;95796.50;5056561;28;20060;-77
2021/12/06 10:23:17;;;;;;;23.58;9.95;;;;;;;3.76;86.23;95791.03;5057207;28;20501;-76
2021/12/06 10:25:49;;;;;;;23.52;10.95;;;;;;;3.94;85.61;95787.81;5059946;28;20051;-77
2021/12/06 10:28:17;;;;;;;21.75;10.77;;;;;;;3.89;85.02;95788.44;5058120;28;20412;-76
2021/12/06 10:30:47;;;;;;;24.42;11.20;;;;;;;3.96;85.02;95785.81;5055365;28;20029;-76
2021/12/06 10:33:17;;;;;;;22.42;10.80;;;;;;;3.88;85.10;95783.44;5061613;28;20560;-76
2021/12/06 10:35:45;;;;;;;20.55;10.00;;;;;;;3.83;85.23;95788.44;5060317;28;20198;-76
2021/12/06 10:38:17;;;;;;;23.20;9.82;;;;;;;3.92;85.88;95792.41;5056648;28;20041;-77
2021/12/06 10:40:44;;;;;;;22.42;10.20;;;;;;;3.90;85.14;95786.63;5055843;28;20155;-76
2021/12/06 10:43:12;;;;;;;24.98;10.55;;;;;;;3.86;85.41;95785.44;5057362;28;20130;-77
2021/12/06 10:45:42;;;;;;;27.45;11.48;;;;;;;3.78;85.21;95790.88;5066987;28;20508;-76
2021/12/06 10:48:14;;;;;;;18.77;9.75;;;;;;;4.07;84.54;95792.19;5058703;28;20279;-77
2021/12/06 10:50:43;;;;;;;21.52;10.40;;;;;;;3.94;84.69;95780.81;5058561;28;20288;-77
2021/12/06 10:53:12;;;;;;;24.27;10.48;;;;;;;3.98;84.89;95783.00;5058978;28;20098;-77
2021/12/06 10:55:40;;;;;;;20.55;10.10;;;;;;;4.07;84.22;95794.78;5056896;28;20036;-77
2021/12/06 10:58:11;;;;;;;20.48;10.25;;;;;;;4.09;84.53;95784.97;5056749;28;20052;-77
2021/12/06 11:00:45;;;;;;;20.55;10.00;;;;;;;4.24;83.01;95800.34;5057023;28;20419;-76
2021/12/06 11:03:25;;;;;;;20.33;9.15;;;;;;;4.40;82.37;95786.84;5055687;28;20064;-76
2021/12/06 11:05:55;;;;;;;16.80;7.55;;;;;;;4.43;80.96;95782.03;5060380;28;20040;-77
2021/12/06 11:08:25;;;;;;;14.27;7.03;;;;;;;4.24;80.20;95784.72;5064188;28;20056;-76
2021/12/06 11:10:54;;;;;;;16.83;7.30;;;;;;;4.12;80.27;95779.34;5067276;28;20049;-77
2021/12/06 11:13:24;;;;;;;13.15;6.15;;;;;;;3.93;80.08;95775.81;5068367;28;20099;-77
2021/12/06 11:16:03;;;;;;;14.75;6.10;;;;;;;4.03;79.34;95789.19;5061118;28;20037;-76
2021/12/06 11:18:35;;;;;;;14.60;6.28;;;;;;;4.05;78.84;95779.38;5057584;28;20041;-77
2021/12/06 11:21:02;;;;;;;12.48;4.82;;;;;;;4.18;76.60;95778.53;5058243;28;20045;-77
2021/12/06 11:23:27;;;;;;;12.32;5.45;;;;;;;4.17;76.19;95776.94;5056721;28;20558;-77
2021/12/06 11:25:54;;;;;;;11.65;4.97;;;;;;;4.40;75.50;95779.03;5055814;28;20045;-75
2021/12/06 11:28:27;;;;;;;11.25;4.45;;;;;;;4.19;75.03;95787.94;5056771;28;20049;-76
2021/12/06 11:30:58;;;;;;;15.73;4.90;;;;;;;4.18;76.91;95779.31;5056431;28;20133;-75
2021/12/06 11:33:29;;;;;;;13.40;5.35;;;;;;;4.14;76.09;95774.72;5062825;28;20068;-76
2021/12/06 11:35:59;;;;;;;14.15;5.07;;;;;;;3.89;78.35;95766.81;5057672;28;20045;-78
2021/12/06 11:38:31;;;;;;;11.43;4.82;;;;;;;4.14;76.25;95779.94;5054817;28;20057;-77
2021/12/06 11:40:58;;;;;;;12.95;5.45;;;;;;;4.20;76.18;95768.72;5058103;28;20445;-77